createdAt,value
2016-05-15T00:00:19.731Z,1003.87
2016-05-15T00:01:19.749Z,1003.86
2016-05-15T00:02:19.768Z,1003.81
2016-05-15T00:03:19.801Z,1003.8
2016-05-15T00:04:19.805Z,1003.81
2016-05-15T00:05:19.824Z,1003.84
2016-05-15T00:06:19.857Z,1003.73
2016-05-15T00:07:19.875Z,1003.74
2016-05-15T00:08:19.893Z,1003.76
2016-05-15T00:09:19.911Z,1003.74
2016-05-15T00:10:19.929Z,1003.77
2016-05-15T00:11:19.949Z,1003.78
2016-05-15T00:12:19.982Z,1003.75
2016-05-15T00:13:20.001Z,1003.75
2016-05-15T00:14:20.018Z,1003.75
2016-05-15T00:15:20.037Z,1003.72
2016-05-15T00:17:20.073Z,1003.74
2016-05-15T00:18:20.092Z,1003.7
2016-05-15T00:19:20.126Z,1003.74
2016-05-15T00:20:20.144Z,1003.73
2016-05-15T00:21:20.162Z,1003.65
2016-05-15T00:22:20.181Z,1003.76
2016-05-15T00:23:20.214Z,1003.72
2016-05-15T00:24:20.234Z,1003.74
2016-05-15T00:25:20.252Z,1003.78
2016-05-15T00:26:20.270Z,1003.77
2016-05-15T00:27:20.288Z,1003.79
2016-05-15T00:28:20.306Z,1003.75
2016-05-15T00:29:20.324Z,1003.79
2016-05-15T00:30:20.343Z,1003.75
2016-05-15T00:31:20.377Z,1003.8
2016-05-15T00:33:20.414Z,1003.81
2016-05-15T00:34:20.432Z,1003.85
2016-05-15T00:35:20.450Z,1003.86
2016-05-15T00:36:20.484Z,1003.81
2016-05-15T00:37:20.502Z,1003.77
2016-05-15T00:38:20.521Z,1003.8
2016-05-15T00:39:20.539Z,1003.82
2016-05-15T00:40:20.557Z,1003.82
2016-05-15T00:41:20.576Z,1003.73
2016-05-15T00:42:20.593Z,1003.83
2016-05-15T00:43:20.628Z,1003.82
2016-05-15T00:44:20.646Z,1003.72
2016-05-15T00:45:20.665Z,1003.83
2016-05-15T00:46:20.683Z,1003.84
2016-05-15T00:47:20.701Z,1003.82
2016-05-15T00:49:21.175Z,1003.75
2016-05-15T00:50:20.773Z,1003.87
2016-05-15T00:51:20.790Z,1003.84
2016-05-15T00:52:20.809Z,1003.82
2016-05-15T00:53:20.827Z,1003.81
2016-05-15T00:54:20.845Z,1003.8
2016-05-15T00:55:20.878Z,1003.83
2016-05-15T00:56:20.897Z,1003.83
2016-05-15T00:57:20.916Z,1003.84
2016-05-15T00:58:20.934Z,1003.85
2016-05-15T00:59:20.952Z,1003.89
2016-05-15T01:00:20.971Z,1003.87
2016-05-15T01:01:20.989Z,1003.9
2016-05-15T01:02:21.022Z,1003.86
2016-05-15T01:03:40.982Z,1003.84
2016-05-15T01:05:21.078Z,1003.87
2016-05-15T01:06:21.112Z,1003.87
2016-05-15T01:07:21.130Z,1003.83
2016-05-15T01:08:21.149Z,1003.8
2016-05-15T01:09:21.166Z,1003.8
2016-05-15T01:10:21.185Z,1003.79
2016-05-15T01:11:21.204Z,1003.83
2016-05-15T01:12:21.222Z,1003.75
2016-05-15T01:13:21.256Z,1003.82
2016-05-15T01:14:21.274Z,1003.76
2016-05-15T01:15:21.292Z,1003.77
2016-05-15T01:16:21.310Z,1003.88
2016-05-15T01:17:21.345Z,1003.81
2016-05-15T01:18:21.362Z,1003.84
2016-05-15T01:20:21.400Z,1003.78
2016-05-15T01:21:21.417Z,1003.87
2016-05-15T01:22:21.437Z,1003.83
2016-05-15T01:23:21.454Z,1003.82
2016-05-15T01:24:21.473Z,1003.82
2016-05-15T01:25:21.506Z,1003.88
2016-05-15T01:26:21.525Z,1003.86
2016-05-15T01:27:21.544Z,1003.83
2016-05-15T01:28:21.561Z,1003.88
2016-05-15T01:29:21.580Z,1003.89
2016-05-15T01:30:21.614Z,1003.94
2016-05-15T01:31:21.632Z,1003.93
2016-05-15T01:32:21.650Z,1003.89
2016-05-15T01:33:21.669Z,1003.89
2016-05-15T01:34:21.688Z,1003.94
2016-05-15T01:35:21.705Z,1003.94
2016-05-15T01:36:21.739Z,1003.94
2016-05-15T01:37:21.758Z,1003.93
2016-05-15T01:38:21.776Z,1003.9
2016-05-15T01:39:21.794Z,1003.89
2016-05-15T01:40:21.813Z,1003.89
2016-05-15T01:41:21.831Z,1003.91
2016-05-15T01:42:21.865Z,1003.9
2016-05-15T01:43:21.882Z,1003.93
2016-05-15T01:44:21.901Z,1003.9
2016-05-15T01:45:21.920Z,1003.94
2016-05-15T01:46:21.937Z,1003.83
2016-05-15T01:47:21.956Z,1003.93
2016-05-15T01:48:21.975Z,1003.92
2016-05-15T01:49:22.009Z,1003.89
2016-05-15T01:50:22.027Z,1003.9
2016-05-15T01:52:22.064Z,1003.92
2016-05-15T01:53:22.081Z,1003.87
2016-05-15T01:54:22.101Z,1003.89
2016-05-15T01:55:22.134Z,1003.97
2016-05-15T01:56:22.153Z,1003.86
2016-05-15T01:57:22.170Z,1003.85
2016-05-15T01:58:22.189Z,1003.79
2016-05-15T01:59:22.208Z,1003.86
2016-05-15T02:00:22.225Z,1003.84
2016-05-15T02:01:22.244Z,1003.86
2016-05-15T02:02:22.278Z,1003.92
2016-05-15T02:03:22.297Z,1003.87
2016-05-15T02:04:22.314Z,1003.92
2016-05-15T02:05:22.333Z,1003.93
2016-05-15T02:06:22.351Z,1003.85
2016-05-15T02:08:22.404Z,1003.99
2016-05-15T02:09:22.421Z,1003.94
2016-05-15T02:10:22.441Z,1004.05
2016-05-15T02:11:22.458Z,1004.05
2016-05-15T02:12:22.477Z,1004.08
2016-05-15T02:13:22.495Z,1004.09
2016-05-15T02:14:22.530Z,1004.13
2016-05-15T02:15:22.548Z,1004.06
2016-05-15T02:16:22.565Z,1004.01
2016-05-15T02:17:22.585Z,1004.09
2016-05-15T02:18:22.602Z,1003.97
2016-05-15T02:19:22.761Z,1004.09
2016-05-15T02:20:22.655Z,1004.16
2016-05-15T02:21:22.673Z,1004.12
2016-05-15T02:22:22.692Z,1004.17
2016-05-15T02:24:22.728Z,1004.12
2016-05-15T02:25:22.746Z,1004.13
2016-05-15T02:26:22.780Z,1004.16
2016-05-15T02:27:22.798Z,1004.14
2016-05-15T02:28:22.817Z,1004.12
2016-05-15T02:29:22.836Z,1004.12
2016-05-15T02:30:22.853Z,1004.15
2016-05-15T02:31:22.872Z,1004.14
2016-05-15T02:32:22.889Z,1004.13
2016-05-15T02:33:22.925Z,1004.18
2016-05-15T02:34:22.942Z,1004.17
2016-05-15T02:35:22.960Z,1004.17
2016-05-15T02:36:22.979Z,1004.13
2016-05-15T02:37:22.997Z,1004.21
2016-05-15T02:38:23.016Z,1004.19
2016-05-15T02:40:23.068Z,1004.19
2016-05-15T02:41:23.086Z,1004.26
2016-05-15T02:42:23.104Z,1004.22
2016-05-15T02:43:23.138Z,1004.27
2016-05-15T02:44:23.141Z,1004.3
2016-05-15T02:45:23.160Z,1004.31
2016-05-15T02:46:23.193Z,1004.31
2016-05-15T02:47:23.212Z,1004.28
2016-05-15T02:48:23.229Z,1004.33
2016-05-15T02:49:23.248Z,1004.27
2016-05-15T02:50:23.267Z,1004.32
2016-05-15T02:51:23.284Z,1004.34
2016-05-15T02:52:23.319Z,1004.34
2016-05-15T02:53:23.337Z,1004.39
2016-05-15T02:55:23.373Z,1004.39
2016-05-15T02:56:23.392Z,1004.42
2016-05-15T02:57:23.411Z,1004.42
2016-05-15T02:58:23.444Z,1004.39
2016-05-15T02:59:23.463Z,1004.37
2016-05-15T03:00:23.481Z,1004.4
2016-05-15T03:01:23.499Z,1004.4
2016-05-15T03:02:23.517Z,1004.44
2016-05-15T03:03:23.536Z,1004.43
2016-05-15T03:04:23.554Z,1004.43
2016-05-15T03:05:23.588Z,1004.42
2016-05-15T03:06:23.622Z,1004.43
2016-05-15T03:07:23.625Z,1004.47
2016-05-15T03:08:23.643Z,1004.5
2016-05-15T03:09:23.661Z,1004.5
2016-05-15T03:10:23.680Z,1004.54
2016-05-15T03:11:23.713Z,1004.5
2016-05-15T03:12:23.732Z,1004.52
2016-05-15T03:13:23.750Z,1004.54
2016-05-15T03:14:23.769Z,1004.49
2016-05-15T03:15:23.787Z,1004.51
2016-05-15T03:16:23.805Z,1004.51
2016-05-15T03:17:23.824Z,1004.54
2016-05-15T03:18:23.857Z,1004.49
2016-05-15T03:19:24.048Z,1004.51
2016-05-15T03:20:23.893Z,1004.57
2016-05-15T03:21:23.913Z,1004.51
2016-05-15T03:22:23.931Z,1004.53
2016-05-15T03:23:23.948Z,1004.54
2016-05-15T03:24:23.968Z,1004.52
2016-05-15T03:25:24.001Z,1004.5
2016-05-15T03:27:24.038Z,1004.47
2016-05-15T03:28:24.056Z,1004.56
2016-05-15T03:29:24.075Z,1004.58
2016-05-15T03:30:24.092Z,1004.57
2016-05-15T03:31:24.111Z,1004.55
2016-05-15T03:32:24.145Z,1004.56
2016-05-15T03:33:24.163Z,1004.6
2016-05-15T03:34:24.181Z,1004.63
2016-05-15T03:35:24.200Z,1004.59
2016-05-15T03:36:24.219Z,1004.63
2016-05-15T03:37:24.236Z,1004.72
2016-05-15T03:38:24.255Z,1004.62
2016-05-15T03:39:24.289Z,1004.59
2016-05-15T03:40:24.307Z,1004.6
2016-05-15T03:41:24.325Z,1004.56
2016-05-15T03:43:24.363Z,1004.59
2016-05-15T03:44:24.380Z,1004.5
2016-05-15T03:45:24.398Z,1004.61
2016-05-15T03:46:24.433Z,1004.59
2016-05-15T03:47:24.451Z,1004.66
2016-05-15T03:48:24.468Z,1004.62
2016-05-15T03:49:24.488Z,1004.7
2016-05-15T03:50:24.507Z,1004.63
2016-05-15T03:51:24.524Z,1004.68
2016-05-15T03:52:24.558Z,1004.66
2016-05-15T03:53:24.577Z,1004.72
2016-05-15T03:54:24.595Z,1004.69
2016-05-15T03:55:24.612Z,1004.64
2016-05-15T03:56:24.632Z,1004.6
2016-05-15T03:57:24.650Z,1004.68
2016-05-15T03:59:24.702Z,1004.71
2016-05-15T04:00:24.720Z,1004.75
2016-05-15T04:01:24.739Z,1004.71
2016-05-15T04:02:24.756Z,1004.78
2016-05-15T04:03:24.775Z,1004.81
2016-05-15T04:04:24.794Z,1004.79
2016-05-15T04:05:24.828Z,1004.86
2016-05-15T04:06:24.846Z,1004.81
2016-05-15T04:07:24.864Z,1004.82
2016-05-15T04:08:24.883Z,1004.85
2016-05-15T04:09:24.900Z,1004.83
2016-05-15T04:10:24.919Z,1004.85
2016-05-15T04:11:24.938Z,1004.81
2016-05-15T04:12:24.972Z,1004.85
2016-05-15T04:13:24.990Z,1004.85
2016-05-15T04:15:25.027Z,1004.85
2016-05-15T04:16:25.044Z,1004.89
2016-05-15T04:17:25.062Z,1004.9
2016-05-15T04:18:25.082Z,1004.92
2016-05-15T04:19:25.631Z,1004.9
2016-05-15T04:20:25.134Z,1004.93
2016-05-15T04:21:25.152Z,1004.89
2016-05-15T04:22:25.171Z,1004.93
2016-05-15T04:23:25.188Z,1004.94
2016-05-15T04:24:25.206Z,1004.97
2016-05-15T04:25:25.226Z,1004.91
2016-05-15T04:26:25.259Z,1004.96
2016-05-15T04:27:25.278Z,1004.93
2016-05-15T04:28:25.295Z,1004.92
2016-05-15T04:30:25.332Z,1004.91
2016-05-15T04:31:25.350Z,1004.99
2016-05-15T04:32:25.384Z,1004.99
2016-05-15T04:33:25.403Z,1004.93
2016-05-15T04:34:25.422Z,1004.95
2016-05-15T04:35:25.439Z,1005.02
2016-05-15T04:36:25.458Z,1004.97
2016-05-15T04:37:25.476Z,1005.02
2016-05-15T04:38:25.494Z,1005
2016-05-15T04:39:25.528Z,1004.99
2016-05-15T04:40:25.547Z,1005.06
2016-05-15T04:41:25.565Z,1005.08
2016-05-15T04:42:25.583Z,1005.05
2016-05-15T04:43:25.602Z,1005.09
2016-05-15T04:44:25.619Z,1005.11
2016-05-15T04:45:25.669Z,1005.07
2016-05-15T04:46:25.671Z,1005.12
2016-05-15T04:47:25.691Z,1005.19
2016-05-15T04:48:25.709Z,1005.14
2016-05-15T04:49:25.727Z,1005.17
2016-05-15T04:50:25.746Z,1005.17
2016-05-15T04:51:25.763Z,1005.2
2016-05-15T04:52:25.798Z,1005.23
2016-05-15T04:53:25.816Z,1005.23
2016-05-15T04:54:25.834Z,1005.23
2016-05-15T04:55:25.853Z,1005.26
2016-05-15T04:56:25.871Z,1005.28
2016-05-15T04:57:25.890Z,1005.3
2016-05-15T04:58:25.923Z,1005.22
2016-05-15T04:59:25.942Z,1005.29
2016-05-15T05:00:25.959Z,1005.32
2016-05-15T05:02:25.997Z,1005.42
2016-05-15T05:03:26.014Z,1005.43
2016-05-15T05:04:26.034Z,1005.36
2016-05-15T05:05:26.067Z,1005.36
2016-05-15T05:06:26.085Z,1005.36
2016-05-15T05:07:26.104Z,1005.41
2016-05-15T05:08:26.122Z,1005.36
2016-05-15T05:09:26.140Z,1005.35
2016-05-15T05:10:26.159Z,1005.4
2016-05-15T05:11:26.177Z,1005.39
2016-05-15T05:12:26.211Z,1005.37
2016-05-15T05:13:26.229Z,1005.39
2016-05-15T05:14:26.247Z,1005.38
2016-05-15T05:15:26.266Z,1005.42
2016-05-15T05:16:26.284Z,1005.43
2016-05-15T05:18:26.321Z,1005.41
2016-05-15T05:19:26.777Z,1005.47
2016-05-15T05:20:26.373Z,1005.47
2016-05-15T05:21:26.391Z,1005.52
2016-05-15T05:22:26.410Z,1005.5
2016-05-15T05:23:26.428Z,1005.55
2016-05-15T05:24:26.446Z,1005.49
2016-05-15T05:25:26.464Z,1005.55
2016-05-15T05:26:26.499Z,1005.51
2016-05-15T05:27:26.517Z,1005.58
2016-05-15T05:28:26.534Z,1005.58
2016-05-15T05:29:26.554Z,1005.59
2016-05-15T05:30:26.572Z,1005.58
2016-05-15T05:31:26.589Z,1005.6
2016-05-15T05:32:26.608Z,1005.55
2016-05-15T05:34:26.661Z,1005.55
2016-05-15T05:35:26.678Z,1005.58
2016-05-15T05:36:26.698Z,1005.58
2016-05-15T05:37:26.716Z,1005.55
2016-05-15T05:38:26.733Z,1005.61
2016-05-15T05:39:26.767Z,1005.58
2016-05-15T05:40:26.786Z,1005.56
2016-05-15T05:41:26.805Z,1005.6
2016-05-15T05:42:26.822Z,1005.61
2016-05-15T05:43:26.841Z,1005.61
2016-05-15T05:44:26.860Z,1005.56
2016-05-15T05:45:26.877Z,1005.57
2016-05-15T05:46:26.911Z,1005.53
2016-05-15T05:47:26.930Z,1005.61
2016-05-15T05:48:26.949Z,1005.6
2016-05-15T05:50:26.985Z,1005.63
2016-05-15T05:51:27.019Z,1005.59
2016-05-15T05:52:27.037Z,1005.7
2016-05-15T05:53:27.055Z,1005.67
2016-05-15T05:54:27.074Z,1005.66
2016-05-15T05:55:27.092Z,1005.74
2016-05-15T05:56:27.126Z,1005.74
2016-05-15T05:57:27.145Z,1005.7
2016-05-15T05:58:27.162Z,1005.74
2016-05-15T05:59:27.181Z,1005.71
2016-05-15T06:00:27.198Z,1005.7
2016-05-15T06:01:27.218Z,1005.76
2016-05-15T06:02:27.236Z,1005.76
2016-05-15T06:03:27.270Z,1005.78
2016-05-15T06:05:27.306Z,1005.76
2016-05-15T06:06:27.325Z,1005.74
2016-05-15T06:07:27.343Z,1005.8
2016-05-15T06:08:27.377Z,1005.81
2016-05-15T06:09:27.395Z,1005.82
2016-05-15T06:10:27.413Z,1005.88
2016-05-15T06:11:27.433Z,1005.83
2016-05-15T06:12:27.450Z,1005.89
2016-05-15T06:13:27.469Z,1005.86
2016-05-15T06:14:27.486Z,1005.87
2016-05-15T06:15:27.521Z,1005.89
2016-05-15T06:16:27.539Z,1005.91
2016-05-15T06:17:27.557Z,1005.92
2016-05-15T06:18:27.577Z,1005.97
2016-05-15T06:19:27.594Z,1005.97
2016-05-15T06:20:27.627Z,1005.98
2016-05-15T06:21:27.631Z,1005.94
2016-05-15T06:22:27.665Z,1006.78
2016-05-15T06:23:27.682Z,1005.93
2016-05-15T06:24:27.701Z,1005.94
2016-05-15T06:25:27.720Z,1005.95
2016-05-15T06:26:27.754Z,1005.95
2016-05-15T06:27:27.771Z,1006.02
2016-05-15T06:28:27.790Z,1006.02
2016-05-15T06:29:27.809Z,1006.02
2016-05-15T06:30:27.842Z,1006.07
2016-05-15T06:31:27.861Z,1006.08
2016-05-15T06:32:27.879Z,1006.12
2016-05-15T06:33:27.898Z,1006.06
2016-05-15T06:34:27.915Z,1006.17
2016-05-15T06:35:27.934Z,1006.25
2016-05-15T06:37:27.986Z,1006.27
2016-05-15T06:38:28.005Z,1007.31
2016-05-15T06:39:28.022Z,1006.39
2016-05-15T06:40:28.042Z,1006.36
2016-05-15T06:41:28.075Z,1006.33
2016-05-15T06:42:28.093Z,1006.25
2016-05-15T06:43:28.112Z,1006.29
2016-05-15T06:44:28.146Z,1006.32
2016-05-15T06:45:28.164Z,1006.34
2016-05-15T06:46:28.182Z,1006.39
2016-05-15T06:47:28.201Z,1006.27
2016-05-15T06:48:28.235Z,1006.71
2016-05-15T06:49:28.252Z,1006.55
2016-05-15T06:50:28.272Z,1007.11
2016-05-15T06:51:28.305Z,1006.5
2016-05-15T06:53:28.341Z,1008.08
2016-05-15T06:54:28.376Z,1006.69
2016-05-15T06:55:28.394Z,1006.45
2016-05-15T06:56:28.412Z,1006.45
2016-05-15T06:57:28.431Z,1006.4
2016-05-15T06:58:28.465Z,1006.42
2016-05-15T06:59:28.482Z,1006.39
2016-05-15T07:00:28.517Z,1006.35
2016-05-15T07:01:28.535Z,1006.43
2016-05-15T07:02:28.554Z,1006.56
2016-05-15T07:03:28.587Z,1007.98
2016-05-15T07:04:28.606Z,1006.78
2016-05-15T07:05:28.624Z,1006.47
2016-05-15T07:06:28.673Z,1006.44
2016-05-15T07:07:28.675Z,1006.72
2016-05-15T07:09:28.728Z,1006.5
2016-05-15T07:10:28.747Z,1006.5
2016-05-15T07:11:28.780Z,1006.54
2016-05-15T07:12:28.800Z,1006.48
2016-05-15T07:13:28.817Z,1007.73
2016-05-15T07:14:28.835Z,1006.56
2016-05-15T07:15:28.870Z,1006.55
2016-05-15T07:16:28.903Z,1006.5
2016-05-15T07:17:28.922Z,1007.18
2016-05-15T07:18:28.941Z,1006.61
2016-05-15T07:19:28.958Z,1006.65
2016-05-15T07:20:28.993Z,1006.67
2016-05-15T07:21:29.010Z,1006.63
2016-05-15T07:22:29.029Z,1006.6
2016-05-15T07:23:29.063Z,1007.65
2016-05-15T07:25:29.115Z,1007.42
2016-05-15T07:26:29.134Z,1006.65
2016-05-15T07:27:29.152Z,1007.01
2016-05-15T07:28:29.185Z,1006.9
2016-05-15T07:29:29.204Z,1006.62
2016-05-15T07:30:29.223Z,1006.49
2016-05-15T07:31:29.257Z,1006.64
2016-05-15T07:32:29.275Z,1006.73
2016-05-15T07:33:29.293Z,1006.94
2016-05-15T07:34:29.327Z,1006.81
2016-05-15T07:35:29.345Z,1007.17
2016-05-15T07:36:29.378Z,1007.17
2016-05-15T07:37:29.398Z,1007.04
2016-05-15T07:38:29.431Z,1006.97
2016-05-15T07:40:29.547Z,1007.26
2016-05-15T07:41:29.610Z,1007.2
2016-05-15T07:42:29.670Z,1007.25
2016-05-15T07:43:29.748Z,1007.21
2016-05-15T07:44:29.797Z,1006.61
2016-05-15T07:45:29.846Z,1006.62
2016-05-15T07:46:29.897Z,1007.08
2016-05-15T07:47:29.930Z,1006.67
2016-05-15T07:48:29.964Z,1006.94
2016-05-15T07:49:30.009Z,1006.72
2016-05-15T07:50:30.033Z,1007.08
2016-05-15T07:51:30.072Z,1007.09
2016-05-15T07:52:30.096Z,1006.82
2016-05-15T07:53:30.136Z,1006.85
2016-05-15T07:54:30.158Z,1006.91
2016-05-15T07:55:30.193Z,1007.17
2016-05-15T07:56:30.213Z,1006.99
2016-05-15T07:57:30.249Z,1007.19
2016-05-15T07:58:30.269Z,1007.12
2016-05-15T07:59:30.305Z,1007.37
2016-05-15T08:00:30.324Z,1007.35
2016-05-15T08:01:30.358Z,1007
2016-05-15T08:02:30.377Z,1006.85
2016-05-15T08:03:30.412Z,1007.12
2016-05-15T08:04:30.447Z,1007.47
2016-05-15T08:05:30.465Z,1007.41
2016-05-15T08:06:30.499Z,1006.74
2016-05-15T08:07:30.519Z,1007.3
2016-05-15T08:08:30.553Z,1006.68
2016-05-15T08:09:30.571Z,1007.31
2016-05-15T08:10:30.606Z,1007.22
2016-05-15T08:12:30.657Z,1006.79
2016-05-15T08:13:30.691Z,1006.69
2016-05-15T08:14:30.710Z,1006.88
2016-05-15T08:15:30.744Z,1007.02
2016-05-15T08:16:30.762Z,1006.99
2016-05-15T08:17:30.796Z,1007.01
2016-05-15T08:18:30.830Z,1006.85
2016-05-15T08:19:30.848Z,1006.84
2016-05-15T08:20:30.882Z,1006.78
2016-05-15T08:21:30.901Z,1006.77
2016-05-15T08:22:30.935Z,1006.81
2016-05-15T08:23:30.968Z,1006.78
2016-05-15T08:24:30.987Z,1006.85
2016-05-15T08:25:31.021Z,1006.79
2016-05-15T08:26:31.039Z,1006.8
2016-05-15T08:28:31.106Z,1006.86
2016-05-15T08:29:31.126Z,1006.96
2016-05-15T08:30:31.144Z,1006.9
2016-05-15T08:31:31.177Z,1007.05
2016-05-15T08:32:31.195Z,1007.03
2016-05-15T08:33:31.230Z,1006.83
2016-05-15T08:34:31.358Z,1006.94
2016-05-15T08:35:31.282Z,1006.83
2016-05-15T08:36:31.301Z,1006.78
2016-05-15T08:37:31.334Z,1006.98
2016-05-15T08:38:31.368Z,1006.82
2016-05-15T08:39:31.387Z,1006.74
2016-05-15T08:40:31.405Z,1006.75
2016-05-15T08:41:31.438Z,1006.8
2016-05-15T08:42:31.457Z,1006.94
2016-05-15T08:44:31.510Z,1006.72
2016-05-15T08:45:31.543Z,1007.01
2016-05-15T08:46:31.562Z,1006.93
2016-05-15T08:47:31.596Z,1006.89
2016-05-15T08:48:31.613Z,1006.89
2016-05-15T08:49:31.648Z,1007.01
2016-05-15T08:50:31.666Z,1006.92
2016-05-15T08:51:31.701Z,1006.95
2016-05-15T08:52:31.718Z,1006.87
2016-05-15T08:53:31.752Z,1006.86
2016-05-15T08:54:31.770Z,1006.86
2016-05-15T08:55:31.804Z,1006.86
2016-05-15T08:56:31.839Z,1006.8
2016-05-15T08:57:31.857Z,1006.94
2016-05-15T08:58:31.875Z,1006.68
2016-05-15T09:00:31.943Z,1006.7
2016-05-15T09:01:31.961Z,1006.81
2016-05-15T09:02:31.995Z,1006.82
2016-05-15T09:03:32.014Z,1006.67
2016-05-15T09:04:32.047Z,1006.83
2016-05-15T09:05:32.067Z,1006.82
2016-05-15T09:06:32.100Z,1006.79
2016-05-15T09:07:32.133Z,1006.62
2016-05-15T09:08:32.152Z,1006.79
2016-05-15T09:09:32.185Z,1006.73
2016-05-15T09:10:32.219Z,1006.71
2016-05-15T09:11:32.239Z,1006.64
2016-05-15T09:12:32.272Z,1006.52
2016-05-15T09:13:32.290Z,1006.64
2016-05-15T09:15:32.358Z,1006.52
2016-05-15T09:16:32.376Z,1006.46
2016-05-15T09:17:32.410Z,1006.47
2016-05-15T09:18:32.445Z,1006.47
2016-05-15T09:19:32.463Z,1006.44
2016-05-15T09:20:32.481Z,1006.45
2016-05-15T09:21:32.515Z,1006.49
2016-05-15T09:22:32.548Z,1006.5
2016-05-15T09:23:32.568Z,1006.46
2016-05-15T09:24:32.601Z,1006.55
2016-05-15T09:25:32.620Z,1006.54
2016-05-15T09:26:32.654Z,1006.58
2016-05-15T09:27:32.672Z,1006.64
2016-05-15T09:28:32.706Z,1006.68
2016-05-15T09:29:32.724Z,1006.76
2016-05-15T09:30:32.758Z,1006.9
2016-05-15T09:31:32.776Z,1007.06
2016-05-15T09:32:32.795Z,1006.99
2016-05-15T09:33:32.828Z,1007.04
2016-05-15T09:34:32.847Z,1007.2
2016-05-15T09:35:32.881Z,1007.11
2016-05-15T09:36:32.914Z,1007.21
2016-05-15T09:37:32.933Z,1007.09
2016-05-15T09:38:32.952Z,1007.08
2016-05-15T09:39:32.970Z,1007.09
2016-05-15T09:40:33.003Z,1007.14
2016-05-15T09:41:33.022Z,1007.14
2016-05-15T09:42:33.056Z,1007.14
2016-05-15T09:43:33.074Z,1007.16
2016-05-15T09:44:33.093Z,1007.21
2016-05-15T09:45:33.126Z,1007.22
2016-05-15T09:47:33.179Z,1007.27
2016-05-15T09:48:33.197Z,1007.33
2016-05-15T09:49:33.215Z,1007.28
2016-05-15T09:50:33.249Z,1007.37
2016-05-15T09:51:33.268Z,1007.23
2016-05-15T09:52:33.302Z,1007.24
2016-05-15T09:53:33.320Z,1007.21
2016-05-15T09:54:33.338Z,1007.35
2016-05-15T09:55:33.372Z,1007.29
2016-05-15T09:56:33.390Z,1007.26
2016-05-15T09:57:33.409Z,1007.14
2016-05-15T09:58:33.442Z,1007.47
2016-05-15T09:59:33.462Z,1007.27
2016-05-15T10:00:33.479Z,1007.31
2016-05-15T10:01:33.514Z,1007.34
2016-05-15T10:03:33.565Z,1007.31
2016-05-15T10:04:34.068Z,1007.28
2016-05-15T10:05:33.602Z,1007.26
2016-05-15T10:06:33.636Z,1007.3
2016-05-15T10:07:33.655Z,1007.27
2016-05-15T10:08:33.673Z,1007.35
2016-05-15T10:09:33.706Z,1007.29
2016-05-15T10:10:33.724Z,1007.34
2016-05-15T10:11:33.743Z,1007.34
2016-05-15T10:12:33.778Z,1007.3
2016-05-15T10:13:33.796Z,1007.2
2016-05-15T10:14:33.829Z,1007.16
2016-05-15T10:15:33.848Z,1007.26
2016-05-15T10:16:33.882Z,1007.17
2016-05-15T10:17:33.900Z,1007.18
2016-05-15T10:19:33.938Z,1007.17
2016-05-15T10:20:33.971Z,1007.13
2016-05-15T10:21:33.989Z,1007.16
2016-05-15T10:22:34.023Z,1007.13
2016-05-15T10:23:34.040Z,1007.11
2016-05-15T10:24:34.060Z,1007.15
2016-05-15T10:25:34.093Z,1007.15
2016-05-15T10:26:34.112Z,1007.09
2016-05-15T10:27:34.145Z,1007.12
2016-05-15T10:28:34.164Z,1007.11
2016-05-15T10:29:34.182Z,1007.1
2016-05-15T10:30:34.201Z,1007.13
2016-05-15T10:31:34.234Z,1007.09
2016-05-15T10:32:34.253Z,1007.07
2016-05-15T10:33:34.287Z,1007.05
2016-05-15T10:35:34.323Z,1007.06
2016-05-15T10:36:34.357Z,1007.04
2016-05-15T10:37:34.376Z,1006.99
2016-05-15T10:38:34.426Z,1007.04
2016-05-15T10:39:34.428Z,1007.03
2016-05-15T10:40:34.446Z,1007.01
2016-05-15T10:41:34.465Z,1006.97
2016-05-15T10:42:34.499Z,1006.92
2016-05-15T10:43:34.517Z,1006.92
2016-05-15T10:44:34.550Z,1006.87
2016-05-15T10:45:34.569Z,1006.9
2016-05-15T10:46:34.603Z,1006.89
2016-05-15T10:47:34.622Z,1006.86
2016-05-15T10:48:34.640Z,1006.91
2016-05-15T10:50:34.691Z,1006.9
2016-05-15T10:51:34.711Z,1006.93
2016-05-15T10:52:34.744Z,1006.92
2016-05-15T10:53:34.762Z,1006.83
2016-05-15T10:54:34.796Z,1006.86
2016-05-15T10:55:34.814Z,1006.8
2016-05-15T10:56:34.833Z,1006.84
2016-05-15T10:57:34.867Z,1006.9
2016-05-15T10:58:34.885Z,1006.89
2016-05-15T10:59:34.919Z,1006.87
2016-05-15T11:00:34.938Z,1006.82
2016-05-15T11:01:34.956Z,1006.85
2016-05-15T11:02:34.990Z,1006.91
2016-05-15T11:03:35.008Z,1006.86
2016-05-15T11:04:35.043Z,1006.84
2016-05-15T11:05:35.060Z,1006.85
2016-05-15T11:06:35.079Z,1006.89
2016-05-15T11:07:35.112Z,1006.89
2016-05-15T11:08:35.131Z,1006.88
2016-05-15T11:09:35.149Z,1006.86
2016-05-15T11:10:35.184Z,1006.91
2016-05-15T11:11:35.202Z,1006.87
2016-05-15T11:12:35.236Z,1006.84
2016-05-15T11:13:35.253Z,1006.84
2016-05-15T11:14:35.272Z,1006.85
2016-05-15T11:15:35.305Z,1006.82
2016-05-15T11:16:35.325Z,1006.87
2016-05-15T11:17:35.343Z,1006.88
2016-05-15T11:18:35.377Z,1007.09
2016-05-15T11:19:35.394Z,1006.88
2016-05-15T11:20:35.429Z,1006.92
2016-05-15T11:22:35.465Z,1006.89
2016-05-15T11:23:35.499Z,1006.88
2016-05-15T11:24:35.518Z,1006.87
2016-05-15T11:25:35.551Z,1006.87
2016-05-15T11:26:35.570Z,1006.84
2016-05-15T11:27:35.588Z,1006.86
2016-05-15T11:28:35.622Z,1006.88
2016-05-15T11:29:35.640Z,1006.81
2016-05-15T11:30:35.674Z,1006.79
2016-05-15T11:31:35.693Z,1006.82
2016-05-15T11:32:35.726Z,1006.74
2016-05-15T11:33:35.745Z,1006.71
2016-05-15T11:34:35.764Z,1006.79
2016-05-15T11:35:35.798Z,1006.78
2016-05-15T11:36:35.815Z,1006.78
2016-05-15T11:38:35.867Z,1006.76
2016-05-15T11:39:35.886Z,1006.78
2016-05-15T11:40:35.920Z,1006.78
2016-05-15T11:41:35.939Z,1006.73
2016-05-15T11:42:35.972Z,1006.74
2016-05-15T11:43:35.991Z,1006.69
2016-05-15T11:44:36.008Z,1006.78
2016-05-15T11:45:36.044Z,1006.88
2016-05-15T11:46:36.061Z,1006.79
2016-05-15T11:47:36.080Z,1006.73
2016-05-15T11:48:36.113Z,1006.75
2016-05-15T11:49:36.132Z,1006.82
2016-05-15T11:50:36.165Z,1006.74
2016-05-15T11:51:36.185Z,1006.83
2016-05-15T11:52:36.218Z,1006.78
2016-05-15T11:54:36.254Z,1006.88
2016-05-15T11:55:36.288Z,1006.81
2016-05-15T11:56:36.415Z,1006.77
2016-05-15T11:57:36.341Z,1006.86
2016-05-15T11:58:36.360Z,1006.85
2016-05-15T11:59:36.377Z,1006.88
2016-05-15T12:00:36.411Z,1006.82
2016-05-15T12:01:36.429Z,1006.89
2016-05-15T12:02:36.464Z,1006.87
2016-05-15T12:03:36.482Z,1006.93
2016-05-15T12:04:36.501Z,1006.89
2016-05-15T12:05:36.534Z,1006.93
2016-05-15T12:06:36.553Z,1006.9
2016-05-15T12:07:36.586Z,1006.86
2016-05-15T12:08:36.605Z,1006.82
2016-05-15T12:10:36.657Z,1006.86
2016-05-15T12:11:36.675Z,1006.84
2016-05-15T12:12:36.709Z,1006.89
2016-05-15T12:13:36.728Z,1006.9
2016-05-15T12:14:36.747Z,1006.82
2016-05-15T12:15:36.780Z,1006.71
2016-05-15T12:16:36.798Z,1006.85
2016-05-15T12:17:36.832Z,1006.88
2016-05-15T12:18:36.850Z,1006.9
2016-05-15T12:19:36.868Z,1006.84
2016-05-15T12:20:36.902Z,1006.84
2016-05-15T12:21:36.922Z,1006.83
2016-05-15T12:22:36.939Z,1006.85
2016-05-15T12:23:36.974Z,1006.85
2016-05-15T12:25:37.026Z,1006.73
2016-05-15T12:26:37.043Z,1006.7
2016-05-15T12:27:37.063Z,1006.75
2016-05-15T12:28:37.096Z,1006.81
2016-05-15T12:29:37.115Z,1006.79
2016-05-15T12:30:37.148Z,1006.81
2016-05-15T12:31:37.167Z,1006.81
2016-05-15T12:32:37.185Z,1006.77
2016-05-15T12:33:37.219Z,1006.81
2016-05-15T12:34:37.237Z,1006.86
2016-05-15T12:35:37.256Z,1006.85
2016-05-15T12:36:37.289Z,1006.94
2016-05-15T12:37:37.308Z,1006.82
2016-05-15T12:38:37.342Z,1006.81
2016-05-15T12:39:37.360Z,1006.77
2016-05-15T12:40:37.379Z,1006.71
2016-05-15T12:41:37.412Z,1006.75
2016-05-15T12:42:37.431Z,1006.83
2016-05-15T12:43:37.464Z,1006.82
2016-05-15T12:44:37.483Z,1006.79
2016-05-15T12:45:37.500Z,1006.81
2016-05-15T12:46:37.536Z,1006.89
2016-05-15T12:47:37.553Z,1006.8
2016-05-15T12:48:37.572Z,1006.9